sensor_id;sensor_type;location;lat;lon;timestamp;temperature;humidity
15596;DHT22;7898;48.658;9.068;2023-05-07T00:00:36;11.50;99.90
15596;DHT22;7898;48.658;9.068;2023-05-07T00:03:03;11.50;99.90
15596;DHT22;7898;48.658;9.068;2023-05-07T00:05:30;11.40;99.90
15596;DHT22;7898;48.658;9.068;2023-05-07T00:07:59;11.40;99.90
15596;DHT22;7898;48.658;9.068;2023-05-07T00:10:26;11.40;99.90
15596;DHT22;7898;48.658;9.068;2023-05-07T00:12:53;11.40;99.90
15596;DHT22;7898;48.658;9.068;2023-05-07T00:15:20;11.40;99.90
15596;DHT22;7898;48.658;9.068;2023-05-07T00:17:47;11.40;99.90
15596;DHT22;7898;48.658;9.068;2023-05-07T00:20:13;11.40;99.90
15596;DHT22;7898;48.658;9.068;2023-05-07T00:22:41;11.30;99.90
15596;DHT22;7898;48.658;9.068;2023-05-07T00:25:09;11.40;99.90
15596;DHT22;7898;48.658;9.068;2023-05-07T00:27:36;11.30;99.90
15596;DHT22;7898;48.658;9.068;2023-05-07T00:30:04;11.30;99.90
15596;DHT22;7898;48.658;9.068;2023-05-07T00:32:31;11.30;99.90
15596;DHT22;7898;48.658;9.068;2023-05-07T00:34:58;11.20;99.90
15596;DHT22;7898;48.658;9.068;2023-05-07T00:37:25;11.30;99.90
15596;DHT22;7898;48.658;9.068;2023-05-07T00:39:52;11.30;99.90
15596;DHT22;7898;48.658;9.068;2023-05-07T00:42:20;11.30;99.90
15596;DHT22;7898;48.658;9.068;2023-05-07T00:44:47;11.20;99.90
15596;DHT22;7898;48.658;9.068;2023-05-07T00:47:14;11.20;99.90
15596;DHT22;7898;48.658;9.068;2023-05-07T00:49:43;11.20;99.90
15596;DHT22;7898;48.658;9.068;2023-05-07T00:52:11;11.10;99.90
15596;DHT22;7898;48.658;9.068;2023-05-07T00:54:40;11.10;99.90
15596;DHT22;7898;48.658;9.068;2023-05-07T00:57:08;11.10;99.90
15596;DHT22;7898;48.658;9.068;2023-05-07T00:59:37;11.10;99.90
15596;DHT22;7898;48.658;9.068;2023-05-07T01:02:05;11.10;99.90
15596;DHT22;7898;48.658;9.068;2023-05-07T01:04:32;11.20;99.90
15596;DHT22;7898;48.658;9.068;2023-05-07T01:06:59;11.10;99.90
15596;DHT22;7898;48.658;9.068;2023-05-07T01:09:28;11.00;99.90
15596;DHT22;7898;48.658;9.068;2023-05-07T01:11:56;11.00;99.90
15596;DHT22;7898;48.658;9.068;2023-05-07T01:14:24;11.00;99.90
15596;DHT22;7898;48.658;9.068;2023-05-07T01:16:53;11.00;99.90
15596;DHT22;7898;48.658;9.068;2023-05-07T01:19:20;11.00;99.90
15596;DHT22;7898;48.658;9.068;2023-05-07T01:21:48;11.00;99.90
15596;DHT22;7898;48.658;9.068;2023-05-07T01:24:18;11.10;99.90
15596;DHT22;7898;48.658;9.068;2023-05-07T01:26:45;11.00;99.90
15596;DHT22;7898;48.658;9.068;2023-05-07T01:29:12;11.00;99.90
15596;DHT22;7898;48.658;9.068;2023-05-07T01:31:40;11.00;99.90
15596;DHT22;7898;48.658;9.068;2023-05-07T01:34:08;11.00;99.90
15596;DHT22;7898;48.658;9.068;2023-05-07T01:36:37;11.00;99.90
15596;DHT22;7898;48.658;9.068;2023-05-07T01:39:06;10.90;99.90
15596;DHT22;7898;48.658;9.068;2023-05-07T01:41:34;10.90;99.90
15596;DHT22;7898;48.658;9.068;2023-05-07T01:44:03;10.90;99.90
15596;DHT22;7898;48.658;9.068;2023-05-07T01:46:31;10.90;99.90
15596;DHT22;7898;48.658;9.068;2023-05-07T01:48:59;10.80;99.90
15596;DHT22;7898;48.658;9.068;2023-05-07T01:51:26;10.90;99.90
15596;DHT22;7898;48.658;9.068;2023-05-07T01:53:53;10.80;99.90
15596;DHT22;7898;48.658;9.068;2023-05-07T01:56:20;10.80;99.90
15596;DHT22;7898;48.658;9.068;2023-05-07T01:58:48;10.90;99.90
15596;DHT22;7898;48.658;9.068;2023-05-07T02:01:16;10.90;99.90
15596;DHT22;7898;48.658;9.068;2023-05-07T02:03:44;10.90;99.90
15596;DHT22;7898;48.658;9.068;2023-05-07T02:06:11;10.80;99.90
15596;DHT22;7898;48.658;9.068;2023-05-07T02:08:37;10.70;99.90
15596;DHT22;7898;48.658;9.068;2023-05-07T02:11:04;10.70;99.90
15596;DHT22;7898;48.658;9.068;2023-05-07T02:13:32;10.70;99.90
15596;DHT22;7898;48.658;9.068;2023-05-07T02:16:01;10.70;99.90
15596;DHT22;7898;48.658;9.068;2023-05-07T02:18:28;10.70;99.90
15596;DHT22;7898;48.658;9.068;2023-05-07T02:20:55;10.70;99.90
15596;DHT22;7898;48.658;9.068;2023-05-07T02:23:21;10.60;99.90
15596;DHT22;7898;48.658;9.068;2023-05-07T02:25:48;10.60;99.90
15596;DHT22;7898;48.658;9.068;2023-05-07T02:28:15;10.60;99.90
15596;DHT22;7898;48.658;9.068;2023-05-07T02:30:42;10.50;99.90
15596;DHT22;7898;48.658;9.068;2023-05-07T02:33:10;10.50;99.90
15596;DHT22;7898;48.658;9.068;2023-05-07T02:35:37;10.50;99.90
15596;DHT22;7898;48.658;9.068;2023-05-07T02:38:04;10.40;99.90
15596;DHT22;7898;48.658;9.068;2023-05-07T02:40:31;10.40;99.90
15596;DHT22;7898;48.658;9.068;2023-05-07T02:43:04;10.40;99.90
15596;DHT22;7898;48.658;9.068;2023-05-07T02:45:31;10.40;99.90
15596;DHT22;7898;48.658;9.068;2023-05-07T02:47:57;10.30;99.90
15596;DHT22;7898;48.658;9.068;2023-05-07T02:50:26;10.40;99.90
15596;DHT22;7898;48.658;9.068;2023-05-07T02:52:53;10.40;99.90
15596;DHT22;7898;48.658;9.068;2023-05-07T02:55:20;10.40;99.90
15596;DHT22;7898;48.658;9.068;2023-05-07T02:57:47;10.40;99.90
15596;DHT22;7898;48.658;9.068;2023-05-07T03:00:15;10.40;99.90
15596;DHT22;7898;48.658;9.068;2023-05-07T03:02:42;10.30;99.90
15596;DHT22;7898;48.658;9.068;2023-05-07T03:05:09;10.30;99.90
15596;DHT22;7898;48.658;9.068;2023-05-07T03:07:37;10.30;99.90
15596;DHT22;7898;48.658;9.068;2023-05-07T03:10:05;10.10;99.90
15596;DHT22;7898;48.658;9.068;2023-05-07T03:12:32;10.10;99.90
15596;DHT22;7898;48.658;9.068;2023-05-07T03:14:59;10.10;99.90
15596;DHT22;7898;48.658;9.068;2023-05-07T03:17:25;10.10;99.90
15596;DHT22;7898;48.658;9.068;2023-05-07T03:19:52;10.00;99.90
15596;DHT22;7898;48.658;9.068;2023-05-07T03:22:19;10.10;99.90
15596;DHT22;7898;48.658;9.068;2023-05-07T03:24:47;10.00;99.90
15596;DHT22;7898;48.658;9.068;2023-05-07T03:27:14;10.00;99.90
15596;DHT22;7898;48.658;9.068;2023-05-07T03:29:41;10.00;99.90
15596;DHT22;7898;48.658;9.068;2023-05-07T03:32:08;10.10;99.90
15596;DHT22;7898;48.658;9.068;2023-05-07T03:34:35;10.00;99.90
15596;DHT22;7898;48.658;9.068;2023-05-07T03:37:02;10.00;99.90
15596;DHT22;7898;48.658;9.068;2023-05-07T03:39:29;10.00;99.90
15596;DHT22;7898;48.658;9.068;2023-05-07T03:41:57;10.10;99.90
15596;DHT22;7898;48.658;9.068;2023-05-07T03:44:24;10.10;99.90
15596;DHT22;7898;48.658;9.068;2023-05-07T03:46:51;10.00;99.90
15596;DHT22;7898;48.658;9.068;2023-05-07T03:49:18;9.90;99.90
15596;DHT22;7898;48.658;9.068;2023-05-07T03:51:45;9.90;99.90
15596;DHT22;7898;48.658;9.068;2023-05-07T03:54:12;9.90;99.90
15596;DHT22;7898;48.658;9.068;2023-05-07T03:56:38;9.90;99.90
15596;DHT22;7898;48.658;9.068;2023-05-07T03:59:07;9.90;99.90
15596;DHT22;7898;48.658;9.068;2023-05-07T04:01:34;9.90;99.90
15596;DHT22;7898;48.658;9.068;2023-05-07T04:04:01;9.80;99.90
15596;DHT22;7898;48.658;9.068;2023-05-07T04:06:28;9.70;99.90
15596;DHT22;7898;48.658;9.068;2023-05-07T04:08:55;9.70;99.90
15596;DHT22;7898;48.658;9.068;2023-05-07T04:11:22;9.70;99.90
15596;DHT22;7898;48.658;9.068;2023-05-07T04:13:49;9.70;99.90
15596;DHT22;7898;48.658;9.068;2023-05-07T04:16:17;9.60;99.90
15596;DHT22;7898;48.658;9.068;2023-05-07T04:18:44;9.60;99.90
15596;DHT22;7898;48.658;9.068;2023-05-07T04:21:14;9.60;99.90
15596;DHT22;7898;48.658;9.068;2023-05-07T04:23:41;9.60;99.90
15596;DHT22;7898;48.658;9.068;2023-05-07T04:26:08;9.60;99.90
15596;DHT22;7898;48.658;9.068;2023-05-07T04:28:35;9.70;99.90
15596;DHT22;7898;48.658;9.068;2023-05-07T04:31:02;9.70;99.90
15596;DHT22;7898;48.658;9.068;2023-05-07T04:33:31;9.70;99.90
15596;DHT22;7898;48.658;9.068;2023-05-07T04:35:58;9.80;99.90
15596;DHT22;7898;48.658;9.068;2023-05-07T04:38:28;9.90;99.90
15596;DHT22;7898;48.658;9.068;2023-05-07T04:40:55;9.80;99.90
15596;DHT22;7898;48.658;9.068;2023-05-07T04:43:22;9.80;99.90
15596;DHT22;7898;48.658;9.068;2023-05-07T04:45:50;9.90;99.90
15596;DHT22;7898;48.658;9.068;2023-05-07T04:48:17;9.90;99.90
15596;DHT22;7898;48.658;9.068;2023-05-07T04:50:47;9.80;99.90
15596;DHT22;7898;48.658;9.068;2023-05-07T04:53:14;9.90;99.90
15596;DHT22;7898;48.658;9.068;2023-05-07T04:55:41;9.90;99.90
15596;DHT22;7898;48.658;9.068;2023-05-07T04:58:08;10.00;99.90
15596;DHT22;7898;48.658;9.068;2023-05-07T05:00:35;10.10;99.90
15596;DHT22;7898;48.658;9.068;2023-05-07T05:03:02;10.20;99.90
15596;DHT22;7898;48.658;9.068;2023-05-07T05:05:29;10.20;99.90
15596;DHT22;7898;48.658;9.068;2023-05-07T05:07:57;10.30;99.90
15596;DHT22;7898;48.658;9.068;2023-05-07T05:10:24;10.30;99.90
15596;DHT22;7898;48.658;9.068;2023-05-07T05:12:51;10.50;99.90
15596;DHT22;7898;48.658;9.068;2023-05-07T05:15:18;10.60;99.90
15596;DHT22;7898;48.658;9.068;2023-05-07T05:17:45;10.70;99.90
15596;DHT22;7898;48.658;9.068;2023-05-07T05:20:12;10.90;99.90
15596;DHT22;7898;48.658;9.068;2023-05-07T05:22:40;11.10;99.90
15596;DHT22;7898;48.658;9.068;2023-05-07T05:25:08;11.30;99.90
15596;DHT22;7898;48.658;9.068;2023-05-07T05:27:35;11.60;99.90
15596;DHT22;7898;48.658;9.068;2023-05-07T05:30:03;11.80;99.90
15596;DHT22;7898;48.658;9.068;2023-05-07T05:32:31;12.10;99.90
15596;DHT22;7898;48.658;9.068;2023-05-07T05:34:57;12.30;99.90
15596;DHT22;7898;48.658;9.068;2023-05-07T05:37:25;12.50;99.90
15596;DHT22;7898;48.658;9.068;2023-05-07T05:39:52;12.70;99.90
15596;DHT22;7898;48.658;9.068;2023-05-07T05:42:21;12.90;99.90
15596;DHT22;7898;48.658;9.068;2023-05-07T05:44:48;13.10;99.90
15596;DHT22;7898;48.658;9.068;2023-05-07T05:47:15;13.30;99.90
15596;DHT22;7898;48.658;9.068;2023-05-07T05:49:42;13.50;99.90
15596;DHT22;7898;48.658;9.068;2023-05-07T05:52:11;13.70;99.90
15596;DHT22;7898;48.658;9.068;2023-05-07T05:54:38;13.80;99.90
15596;DHT22;7898;48.658;9.068;2023-05-07T05:57:05;14.00;99.90
15596;DHT22;7898;48.658;9.068;2023-05-07T05:59:33;14.30;99.90
15596;DHT22;7898;48.658;9.068;2023-05-07T06:02:00;14.40;99.90
15596;DHT22;7898;48.658;9.068;2023-05-07T06:04:27;14.60;99.90
15596;DHT22;7898;48.658;9.068;2023-05-07T06:06:54;14.90;99.90
15596;DHT22;7898;48.658;9.068;2023-05-07T06:09:22;15.20;99.90
15596;DHT22;7898;48.658;9.068;2023-05-07T06:11:49;15.50;99.90
15596;DHT22;7898;48.658;9.068;2023-05-07T06:14:15;15.70;99.90
15596;DHT22;7898;48.658;9.068;2023-05-07T06:16:44;15.90;99.90
15596;DHT22;7898;48.658;9.068;2023-05-07T06:19:11;16.10;99.90
15596;DHT22;7898;48.658;9.068;2023-05-07T06:21:38;16.20;99.90
15596;DHT22;7898;48.658;9.068;2023-05-07T06:24:06;16.30;99.90
15596;DHT22;7898;48.658;9.068;2023-05-07T06:26:33;16.40;99.90
15596;DHT22;7898;48.658;9.068;2023-05-07T06:29:00;16.60;99.90
15596;DHT22;7898;48.658;9.068;2023-05-07T06:31:30;16.80;99.90
15596;DHT22;7898;48.658;9.068;2023-05-07T06:33:59;17.70;99.90
15596;DHT22;7898;48.658;9.068;2023-05-07T06:36:27;17.20;99.90
15596;DHT22;7898;48.658;9.068;2023-05-07T06:38:54;17.40;99.90
15596;DHT22;7898;48.658;9.068;2023-05-07T06:41:21;17.60;99.90
15596;DHT22;7898;48.658;9.068;2023-05-07T06:43:48;17.70;99.90
15596;DHT22;7898;48.658;9.068;2023-05-07T06:46:15;17.70;99.90
15596;DHT22;7898;48.658;9.068;2023-05-07T06:48:42;17.90;99.90
15596;DHT22;7898;48.658;9.068;2023-05-07T06:51:11;18.30;99.90
15596;DHT22;7898;48.658;9.068;2023-05-07T06:53:38;18.60;99.90
15596;DHT22;7898;48.658;9.068;2023-05-07T06:56:05;19.00;99.90
15596;DHT22;7898;48.658;9.068;2023-05-07T06:58:32;19.40;99.90
15596;DHT22;7898;48.658;9.068;2023-05-07T07:00:59;19.70;99.90
15596;DHT22;7898;48.658;9.068;2023-05-07T07:03:26;20.10;99.90
15596;DHT22;7898;48.658;9.068;2023-05-07T07:05:53;20.50;99.90
15596;DHT22;7898;48.658;9.068;2023-05-07T07:08:22;20.80;99.90
15596;DHT22;7898;48.658;9.068;2023-05-07T07:10:49;21.20;99.90
15596;DHT22;7898;48.658;9.068;2023-05-07T07:13:16;21.40;99.90
15596;DHT22;7898;48.658;9.068;2023-05-07T07:15:43;22.00;99.90
15596;DHT22;7898;48.658;9.068;2023-05-07T07:18:10;22.10;99.90
15596;DHT22;7898;48.658;9.068;2023-05-07T07:20:37;22.60;99.90
15596;DHT22;7898;48.658;9.068;2023-05-07T07:23:04;22.90;99.90
15596;DHT22;7898;48.658;9.068;2023-05-07T07:25:35;23.00;99.90
15596;DHT22;7898;48.658;9.068;2023-05-07T07:28:01;22.80;99.90
15596;DHT22;7898;48.658;9.068;2023-05-07T07:30:28;23.20;99.90
15596;DHT22;7898;48.658;9.068;2023-05-07T07:32:55;23.30;99.90
15596;DHT22;7898;48.658;9.068;2023-05-07T07:35:27;23.60;99.90
15596;DHT22;7898;48.658;9.068;2023-05-07T07:37:54;23.90;99.90
15596;DHT22;7898;48.658;9.068;2023-05-07T07:40:21;24.10;99.90
15596;DHT22;7898;48.658;9.068;2023-05-07T07:42:49;23.90;99.90
15596;DHT22;7898;48.658;9.068;2023-05-07T07:45:16;23.80;99.90
15596;DHT22;7898;48.658;9.068;2023-05-07T07:47:43;23.80;99.90
15596;DHT22;7898;48.658;9.068;2023-05-07T07:50:10;23.60;99.90
15596;DHT22;7898;48.658;9.068;2023-05-07T07:52:37;23.40;99.90
15596;DHT22;7898;48.658;9.068;2023-05-07T07:55:05;23.20;99.90
15596;DHT22;7898;48.658;9.068;2023-05-07T07:57:33;22.90;99.90
15596;DHT22;7898;48.658;9.068;2023-05-07T08:00:01;22.70;99.90
15596;DHT22;7898;48.658;9.068;2023-05-07T08:02:28;22.80;99.90
15596;DHT22;7898;48.658;9.068;2023-05-07T08:04:55;23.10;99.90
15596;DHT22;7898;48.658;9.068;2023-05-07T08:07:22;23.30;99.90
15596;DHT22;7898;48.658;9.068;2023-05-07T08:09:48;23.20;99.90
15596;DHT22;7898;48.658;9.068;2023-05-07T08:12:16;23.00;99.90
15596;DHT22;7898;48.658;9.068;2023-05-07T08:14:42;22.90;99.90
15596;DHT22;7898;48.658;9.068;2023-05-07T08:17:11;23.00;99.90
15596;DHT22;7898;48.658;9.068;2023-05-07T08:19:38;22.70;99.90
15596;DHT22;7898;48.658;9.068;2023-05-07T08:22:05;22.10;99.90
15596;DHT22;7898;48.658;9.068;2023-05-07T08:24:32;21.70;99.90
15596;DHT22;7898;48.658;9.068;2023-05-07T08:26:59;21.90;99.90
15596;DHT22;7898;48.658;9.068;2023-05-07T08:29:26;21.90;99.90
15596;DHT22;7898;48.658;9.068;2023-05-07T08:31:53;22.10;99.90
15596;DHT22;7898;48.658;9.068;2023-05-07T08:34:21;22.20;99.90
15596;DHT22;7898;48.658;9.068;2023-05-07T08:36:48;22.50;99.90
15596;DHT22;7898;48.658;9.068;2023-05-07T08:39:15;22.50;99.90
15596;DHT22;7898;48.658;9.068;2023-05-07T08:41:44;22.60;99.90
15596;DHT22;7898;48.658;9.068;2023-05-07T08:44:12;22.70;99.90
15596;DHT22;7898;48.658;9.068;2023-05-07T08:46:39;22.90;99.90
15596;DHT22;7898;48.658;9.068;2023-05-07T08:49:08;23.00;99.90
15596;DHT22;7898;48.658;9.068;2023-05-07T08:51:36;23.30;99.90
15596;DHT22;7898;48.658;9.068;2023-05-07T08:54:03;23.50;99.90
15596;DHT22;7898;48.658;9.068;2023-05-07T08:56:31;23.50;99.90
15596;DHT22;7898;48.658;9.068;2023-05-07T08:58:58;23.40;99.90
15596;DHT22;7898;48.658;9.068;2023-05-07T09:01:25;23.30;99.90
15596;DHT22;7898;48.658;9.068;2023-05-07T09:03:53;23.20;99.90
15596;DHT22;7898;48.658;9.068;2023-05-07T09:06:20;23.40;99.90
15596;DHT22;7898;48.658;9.068;2023-05-07T09:08:52;23.60;99.90
15596;DHT22;7898;48.658;9.068;2023-05-07T09:11:22;23.60;99.90
15596;DHT22;7898;48.658;9.068;2023-05-07T09:13:52;23.60;99.90
15596;DHT22;7898;48.658;9.068;2023-05-07T09:16:21;23.70;99.90
15596;DHT22;7898;48.658;9.068;2023-05-07T09:18:51;23.80;99.90
15596;DHT22;7898;48.658;9.068;2023-05-07T09:21:20;23.90;99.90
15596;DHT22;7898;48.658;9.068;2023-05-07T09:23:49;23.90;99.90
15596;DHT22;7898;48.658;9.068;2023-05-07T09:26:17;24.00;99.90
15596;DHT22;7898;48.658;9.068;2023-05-07T09:28:45;24.30;99.90
15596;DHT22;7898;48.658;9.068;2023-05-07T09:31:12;24.30;99.90
15596;DHT22;7898;48.658;9.068;2023-05-07T09:33:40;24.30;99.90
15596;DHT22;7898;48.658;9.068;2023-05-07T09:36:08;24.00;99.90
15596;DHT22;7898;48.658;9.068;2023-05-07T09:38:37;23.90;99.90
15596;DHT22;7898;48.658;9.068;2023-05-07T09:41:07;23.90;99.90
15596;DHT22;7898;48.658;9.068;2023-05-07T09:43:37;24.00;99.90
15596;DHT22;7898;48.658;9.068;2023-05-07T09:46:07;24.10;99.90
15596;DHT22;7898;48.658;9.068;2023-05-07T09:48:37;24.00;99.90
15596;DHT22;7898;48.658;9.068;2023-05-07T09:51:11;23.90;99.90
15596;DHT22;7898;48.658;9.068;2023-05-07T09:53:42;24.00;99.90
15596;DHT22;7898;48.658;9.068;2023-05-07T09:56:12;24.10;99.90
15596;DHT22;7898;48.658;9.068;2023-05-07T09:58:42;24.20;99.90
15596;DHT22;7898;48.658;9.068;2023-05-07T10:01:11;24.30;99.90
15596;DHT22;7898;48.658;9.068;2023-05-07T10:03:40;24.40;99.90
15596;DHT22;7898;48.658;9.068;2023-05-07T10:06:08;24.40;99.90
15596;DHT22;7898;48.658;9.068;2023-05-07T10:08:36;24.50;99.90
15596;DHT22;7898;48.658;9.068;2023-05-07T10:11:04;24.60;99.90
15596;DHT22;7898;48.658;9.068;2023-05-07T10:13:31;24.70;99.90
15596;DHT22;7898;48.658;9.068;2023-05-07T10:16:00;24.80;99.90
15596;DHT22;7898;48.658;9.068;2023-05-07T10:18:28;25.00;99.90
15596;DHT22;7898;48.658;9.068;2023-05-07T10:21:02;25.10;99.90
15596;DHT22;7898;48.658;9.068;2023-05-07T10:23:31;24.70;99.90
15596;DHT22;7898;48.658;9.068;2023-05-07T10:26:00;24.60;99.90
15596;DHT22;7898;48.658;9.068;2023-05-07T10:28:29;24.70;99.90
15596;DHT22;7898;48.658;9.068;2023-05-07T10:31:10;24.50;99.90
15596;DHT22;7898;48.658;9.068;2023-05-07T10:33:42;24.40;99.90
15596;DHT22;7898;48.658;9.068;2023-05-07T10:36:10;24.00;99.90
15596;DHT22;7898;48.658;9.068;2023-05-07T10:38:37;23.70;99.90
15596;DHT22;7898;48.658;9.068;2023-05-07T10:41:06;23.60;99.90
15596;DHT22;7898;48.658;9.068;2023-05-07T10:43:43;23.70;99.90
15596;DHT22;7898;48.658;9.068;2023-05-07T10:46:15;23.90;99.90
15596;DHT22;7898;48.658;9.068;2023-05-07T10:49:10;23.90;99.90
15596;DHT22;7898;48.658;9.068;2023-05-07T10:51:38;24.10;99.90
15596;DHT22;7898;48.658;9.068;2023-05-07T10:54:23;24.40;99.90
15596;DHT22;7898;48.658;9.068;2023-05-07T10:56:50;24.60;99.90
15596;DHT22;7898;48.658;9.068;2023-05-07T10:59:37;24.70;99.90
15596;DHT22;7898;48.658;9.068;2023-05-07T11:02:10;24.60;99.90
15596;DHT22;7898;48.658;9.068;2023-05-07T11:04:39;24.50;99.90
15596;DHT22;7898;48.658;9.068;2023-05-07T11:07:29;24.40;99.90
15596;DHT22;7898;48.658;9.068;2023-05-07T11:10:03;24.40;99.90
15596;DHT22;7898;48.658;9.068;2023-05-07T11:12:50;24.20;99.90
15596;DHT22;7898;48.658;9.068;2023-05-07T11:15:37;24.00;99.90
15596;DHT22;7898;48.658;9.068;2023-05-07T11:18:06;23.70;99.90
15596;DHT22;7898;48.658;9.068;2023-05-07T11:20:51;23.70;99.90
15596;DHT22;7898;48.658;9.068;2023-05-07T11:23:55;23.70;99.90
15596;DHT22;7898;48.658;9.068;2023-05-07T11:26:26;23.80;99.90
15596;DHT22;7898;48.658;9.068;2023-05-07T11:28:54;23.80;99.90
15596;DHT22;7898;48.658;9.068;2023-05-07T11:31:26;23.90;99.90
15596;DHT22;7898;48.658;9.068;2023-05-07T11:33:55;23.90;99.90
15596;DHT22;7898;48.658;9.068;2023-05-07T11:36:23;23.90;99.90
15596;DHT22;7898;48.658;9.068;2023-05-07T11:38:51;23.90;99.90
15596;DHT22;7898;48.658;9.068;2023-05-07T11:41:18;23.70;99.90
15596;DHT22;7898;48.658;9.068;2023-05-07T11:43:57;23.60;99.90
15596;DHT22;7898;48.658;9.068;2023-05-07T11:46:27;23.50;99.90
15596;DHT22;7898;48.658;9.068;2023-05-07T11:48:56;23.30;99.90
15596;DHT22;7898;48.658;9.068;2023-05-07T11:51:24;23.20;99.90
15596;DHT22;7898;48.658;9.068;2023-05-07T11:53:53;23.20;99.90
15596;DHT22;7898;48.658;9.068;2023-05-07T11:56:20;23.10;99.90
15596;DHT22;7898;48.658;9.068;2023-05-07T11:58:47;22.90;99.90
15596;DHT22;7898;48.658;9.068;2023-05-07T12:01:15;22.70;99.90
15596;DHT22;7898;48.658;9.068;2023-05-07T12:03:44;22.60;99.90
15596;DHT22;7898;48.658;9.068;2023-05-07T12:06:14;22.30;99.90
15596;DHT22;7898;48.658;9.068;2023-05-07T12:08:42;22.10;99.90
15596;DHT22;7898;48.658;9.068;2023-05-07T12:11:13;21.80;99.90
15596;DHT22;7898;48.658;9.068;2023-05-07T12:13:41;21.40;99.90
15596;DHT22;7898;48.658;9.068;2023-05-07T12:16:08;21.00;99.90
15596;DHT22;7898;48.658;9.068;2023-05-07T12:18:36;20.60;99.90
15596;DHT22;7898;48.658;9.068;2023-05-07T12:21:09;20.20;99.90
15596;DHT22;7898;48.658;9.068;2023-05-07T12:23:39;19.90;99.90
15596;DHT22;7898;48.658;9.068;2023-05-07T12:26:06;19.60;99.90
15596;DHT22;7898;48.658;9.068;2023-05-07T12:28:37;19.30;99.90
15596;DHT22;7898;48.658;9.068;2023-05-07T12:31:05;18.40;99.90
15596;DHT22;7898;48.658;9.068;2023-05-07T12:33:32;17.30;99.90
15596;DHT22;7898;48.658;9.068;2023-05-07T12:36:04;16.50;99.90
15596;DHT22;7898;48.658;9.068;2023-05-07T12:38:39;15.80;99.90
15596;DHT22;7898;48.658;9.068;2023-05-07T12:41:07;15.10;99.90
15596;DHT22;7898;48.658;9.068;2023-05-07T12:43:34;14.50;99.90
15596;DHT22;7898;48.658;9.068;2023-05-07T12:46:04;14.10;99.90
15596;DHT22;7898;48.658;9.068;2023-05-07T12:48:31;13.90;99.90
15596;DHT22;7898;48.658;9.068;2023-05-07T12:50:59;13.80;99.90
15596;DHT22;7898;48.658;9.068;2023-05-07T12:53:28;13.80;99.90
15596;DHT22;7898;48.658;9.068;2023-05-07T12:55:57;13.80;99.90
15596;DHT22;7898;48.658;9.068;2023-05-07T12:58:26;13.80;99.90
15596;DHT22;7898;48.658;9.068;2023-05-07T13:00:53;13.80;99.90
15596;DHT22;7898;48.658;9.068;2023-05-07T13:03:25;13.90;99.90
15596;DHT22;7898;48.658;9.068;2023-05-07T13:05:52;14.00;99.90
15596;DHT22;7898;48.658;9.068;2023-05-07T13:08:30;14.10;99.90
15596;DHT22;7898;48.658;9.068;2023-05-07T13:11:00;14.30;99.90
15596;DHT22;7898;48.658;9.068;2023-05-07T13:13:29;14.30;99.90
15596;DHT22;7898;48.658;9.068;2023-05-07T13:15:56;14.50;99.90
15596;DHT22;7898;48.658;9.068;2023-05-07T13:18:24;14.50;99.90
15596;DHT22;7898;48.658;9.068;2023-05-07T13:20:52;14.50;99.90
15596;DHT22;7898;48.658;9.068;2023-05-07T13:23:19;14.50;99.90
15596;DHT22;7898;48.658;9.068;2023-05-07T13:25:46;14.50;99.90
15596;DHT22;7898;48.658;9.068;2023-05-07T13:28:14;14.50;99.90
15596;DHT22;7898;48.658;9.068;2023-05-07T13:30:41;14.40;99.90
15596;DHT22;7898;48.658;9.068;2023-05-07T13:33:08;14.40;99.90
15596;DHT22;7898;48.658;9.068;2023-05-07T13:35:35;14.40;99.90
15596;DHT22;7898;48.658;9.068;2023-05-07T13:38:03;14.50;99.90
15596;DHT22;7898;48.658;9.068;2023-05-07T13:40:30;14.40;99.90
15596;DHT22;7898;48.658;9.068;2023-05-07T13:42:57;14.40;99.90
15596;DHT22;7898;48.658;9.068;2023-05-07T13:45:27;14.40;99.90
15596;DHT22;7898;48.658;9.068;2023-05-07T13:47:55;14.40;99.90
15596;DHT22;7898;48.658;9.068;2023-05-07T13:50:22;14.40;99.90
15596;DHT22;7898;48.658;9.068;2023-05-07T13:52:50;14.20;99.90
15596;DHT22;7898;48.658;9.068;2023-05-07T13:55:17;14.30;99.90
15596;DHT22;7898;48.658;9.068;2023-05-07T13:57:44;14.30;99.90
15596;DHT22;7898;48.658;9.068;2023-05-07T14:00:12;14.40;99.90
15596;DHT22;7898;48.658;9.068;2023-05-07T14:02:40;14.40;99.90
15596;DHT22;7898;48.658;9.068;2023-05-07T14:05:08;14.40;99.90
15596;DHT22;7898;48.658;9.068;2023-05-07T14:07:35;14.40;99.90
15596;DHT22;7898;48.658;9.068;2023-05-07T14:10:03;14.40;99.90
15596;DHT22;7898;48.658;9.068;2023-05-07T14:12:30;14.40;99.90
15596;DHT22;7898;48.658;9.068;2023-05-07T14:14:56;14.40;99.90
15596;DHT22;7898;48.658;9.068;2023-05-07T14:17:23;14.50;99.90
15596;DHT22;7898;48.658;9.068;2023-05-07T14:19:54;14.50;99.90
15596;DHT22;7898;48.658;9.068;2023-05-07T14:22:21;14.50;99.90
15596;DHT22;7898;48.658;9.068;2023-05-07T14:24:49;14.50;99.90
15596;DHT22;7898;48.658;9.068;2023-05-07T14:27:16;14.50;99.90
15596;DHT22;7898;48.658;9.068;2023-05-07T14:29:43;14.50;99.90
15596;DHT22;7898;48.658;9.068;2023-05-07T14:32:11;14.50;99.90
15596;DHT22;7898;48.658;9.068;2023-05-07T14:34:38;14.50;99.90
15596;DHT22;7898;48.658;9.068;2023-05-07T14:37:06;14.50;99.90
15596;DHT22;7898;48.658;9.068;2023-05-07T14:39:33;14.50;99.90
15596;DHT22;7898;48.658;9.068;2023-05-07T14:42:00;14.50;99.90
15596;DHT22;7898;48.658;9.068;2023-05-07T14:44:27;14.50;99.90
15596;DHT22;7898;48.658;9.068;2023-05-07T14:46:54;14.50;99.90
15596;DHT22;7898;48.658;9.068;2023-05-07T14:49:22;14.50;99.90
15596;DHT22;7898;48.658;9.068;2023-05-07T14:51:49;14.60;99.90
15596;DHT22;7898;48.658;9.068;2023-05-07T14:54:17;14.50;99.90
15596;DHT22;7898;48.658;9.068;2023-05-07T14:56:44;14.50;99.90
15596;DHT22;7898;48.658;9.068;2023-05-07T14:59:11;14.50;99.90
15596;DHT22;7898;48.658;9.068;2023-05-07T15:01:38;14.60;99.90
15596;DHT22;7898;48.658;9.068;2023-05-07T15:04:10;14.60;99.90
15596;DHT22;7898;48.658;9.068;2023-05-07T15:06:37;14.70;99.90
15596;DHT22;7898;48.658;9.068;2023-05-07T15:09:04;14.80;99.90
15596;DHT22;7898;48.658;9.068;2023-05-07T15:11:33;14.80;99.90
15596;DHT22;7898;48.658;9.068;2023-05-07T15:14:00;14.90;99.90
15596;DHT22;7898;48.658;9.068;2023-05-07T15:16:27;15.00;99.90
15596;DHT22;7898;48.658;9.068;2023-05-07T15:18:54;15.00;99.90
15596;DHT22;7898;48.658;9.068;2023-05-07T15:21:21;15.00;99.90
15596;DHT22;7898;48.658;9.068;2023-05-07T15:23:48;15.10;99.90
15596;DHT22;7898;48.658;9.068;2023-05-07T15:26:14;15.20;99.90
15596;DHT22;7898;48.658;9.068;2023-05-07T15:28:43;15.30;99.90
15596;DHT22;7898;48.658;9.068;2023-05-07T15:31:09;15.30;99.90
15596;DHT22;7898;48.658;9.068;2023-05-07T15:33:37;15.40;99.90
15596;DHT22;7898;48.658;9.068;2023-05-07T15:36:05;15.40;99.90
15596;DHT22;7898;48.658;9.068;2023-05-07T15:38:32;15.40;99.90
15596;DHT22;7898;48.658;9.068;2023-05-07T15:40:58;15.40;99.90
15596;DHT22;7898;48.658;9.068;2023-05-07T15:43:25;15.60;99.90
15596;DHT22;7898;48.658;9.068;2023-05-07T15:45:54;15.70;99.90
15596;DHT22;7898;48.658;9.068;2023-05-07T15:48:21;15.80;99.90
15596;DHT22;7898;48.658;9.068;2023-05-07T15:50:48;15.80;99.90
15596;DHT22;7898;48.658;9.068;2023-05-07T15:53:15;15.90;99.90